Pagrindinis puslapis
METAR-TAF:

METAR-TAF

Oro uostai :

Turaif, Saudo Arabija

platuma: 31-41N, ilguma: 038-44E, Aukštis: 813 m

Dabartinis oras

Ataskaita buvo paskelbta 19 minutes, ne 07:00 UTC
Vėjas 11 kt iš Pietryčių
Temperatūra 26°C
Drėgmė 18%
Slėgis 1021 hPa
Matomumas 10 km arba daugiau
nėra debesų žemiau 1500 m ir nėra kamuolinių lietaus debesų

METAR: OETR 210700Z 13011KT CAVOK 26/00 Q1021 NOSIG

Laikas: 10:19 (07:19 UTC)

Prognozė

Ataskaita buvo paskelbta 8 valandos ir 19 minutes, ne 23:00 UTC
Prognozė galioja nuo 21 metu 00 UTC su 22 metu 06 UTC
Vėjas 13 kt iš Pietų/Pietvakarių
Matomumas 10 km arba daugiau
nėra debesų žemiau 1500 m ir nėra kamuolinių lietaus debesų
Tapsmas
nuo 21 metu 18 UTC su 21 metu 20 UTC
Vėjas 3 kt nuo kintamojo kryptimis

TAF: OETR 202300Z 2100/2206 20013KT CAVOK BECMG 2118/2120 VRB03KT

Orai ataskaitas ir orų prognozės (METAR, TAF).

turimą stotys yra geltonos ir raudonos taškus žemėlapyje.

Perkelti pele per norėdami pamatyti stoties vardą.

Tada spustelėkite, norėdami matyti oro stebėjimo ir prognozės.

Norėdami pakeisti žemėlapį: spustelėkite ant žalios mygtukų su juodo kryžiaus žemyn,; žalią mygtuką su brūkšneliu, jei norite nutolinti; arba žalių rodyklių gretimoms žemėlapius.


METAR-TAF: